Time;durP1;ratioP1;P1;durP2;ratioP2;P2;SDS_P1;SDS_P2;PMS_P1;PMS_P2;Temp;Humidity;BMP_temperature;BMP_pressure;BME280_temperature;BME280_humidity;BME280_pressure;Samples;Min_cycle;Max_cycle;Signal;HPM_P1;HPM_P2
2022/10/25 00:01:26;;;;;;;3.65;1.63;;;;;;;13.78;100.00;100329.88;5036886;28;20056;-74
2022/10/25 00:03:53;;;;;;;4.85;1.67;;;;;;;13.95;100.00;100358.13;5039919;28;20041;-73
2022/10/25 00:06:20;;;;;;;6.05;2.28;;;;;;;13.82;100.00;100327.91;5030828;28;20417;-73
2022/10/25 00:08:47;;;;;;;2.42;1.63;;;;;;;13.96;100.00;100354.53;5033957;28;20056;-74
2022/10/25 00:11:26;;;;;;;4.38;1.52;;;;;;;13.90;100.00;100344.22;5036113;28;20079;-75
2022/10/25 00:13:54;;;;;;;7.95;1.55;;;;;;;13.87;100.00;100339.94;5036448;28;20060;-72
2022/10/25 00:16:27;;;;;;;3.67;1.60;;;;;;;13.68;100.00;100318.97;5028994;28;20635;-74
2022/10/25 00:18:54;;;;;;;3.28;1.60;;;;;;;13.69;100.00;100322.47;5038732;28;20433;-73
2022/10/25 00:21:21;;;;;;;4.68;1.70;;;;;;;13.73;100.00;100336.41;5036426;28;20234;-74
2022/10/25 00:23:49;;;;;;;5.22;1.60;;;;;;;13.66;100.00;100344.78;5043317;28;20044;-74
2022/10/25 00:26:16;;;;;;;5.18;1.58;;;;;;;13.53;100.00;100327.00;5029669;28;20045;-73
2022/10/25 00:28:42;;;;;;;5.15;1.48;;;;;;;13.54;100.00;100334.88;5043375;28;20041;-73
2022/10/25 00:31:11;;;;;;;4.82;1.45;;;;;;;13.60;100.00;100342.50;5036675;28;20045;-73
2022/10/25 00:33:39;;;;;;;4.00;1.40;;;;;;;13.61;100.00;100357.50;5038697;28;20045;-74
2022/10/25 00:36:17;;;;;;;3.90;1.55;;;;;;;13.50;100.00;100329.84;5031994;28;20052;-75
2022/10/25 00:38:45;;;;;;;2.67;1.48;;;;;;;13.48;100.00;100326.41;5041089;28;20103;-74
2022/10/25 00:41:13;;;;;;;3.38;1.50;;;;;;;13.66;100.00;100352.78;5038156;28;20057;-74
2022/10/25 00:43:46;;;;;;;5.82;1.60;;;;;;;13.62;100.00;100359.22;5039581;28;20156;-76
2022/10/25 00:46:19;;;;;;;4.30;1.25;;;;;;;13.65;100.00;100356.38;5039758;28;20044;-74
2022/10/25 00:49:13;;;;;;;5.60;1.77;;;;;;;13.58;100.00;100363.00;5049939;28;20106;-73
2022/10/25 00:51:56;;;;;;;3.13;1.33;;;;;;;13.63;100.00;100368.06;5048619;28;20041;-74
2022/10/25 00:54:27;;;;;;;4.03;1.60;;;;;;;13.59;100.00;100361.22;5049591;28;20140;-74
2022/10/25 00:57:00;;;;;;;3.55;1.48;;;;;;;13.70;100.00;100374.72;5034141;28;20114;-73
2022/10/25 00:59:27;;;;;;;4.35;1.55;;;;;;;13.76;100.00;100360.19;5048826;28;20056;-72
2022/10/25 01:01:55;;;;;;;4.70;1.60;;;;;;;13.75;100.00;100366.47;5045009;28;20124;-72
2022/10/25 01:04:26;;;;;;;3.40;1.50;;;;;;;13.69;100.00;100365.03;5040381;28;20053;-74
2022/10/25 01:06:53;;;;;;;3.63;1.20;;;;;;;13.64;100.00;100361.78;5034279;28;20273;-72
2022/10/25 01:09:29;;;;;;;5.45;1.60;;;;;;;13.59;100.00;100367.38;5037599;28;21401;-72
2022/10/25 01:11:56;;;;;;;6.93;1.70;;;;;;;13.53;100.00;100358.94;5038254;28;20117;-74
2022/10/25 01:14:23;;;;;;;5.35;1.30;;;;;;;13.35;100.00;100352.91;5039080;28;20050;-74
2022/10/25 01:17:09;;;;;;;3.08;1.23;;;;;;;13.40;100.00;100377.41;5029392;28;20047;-73
2022/10/25 01:20:07;;;;;;;3.00;1.55;;;;;;;13.33;100.00;100376.91;5040671;28;20045;-72
2022/10/25 01:22:52;;;;;;;3.95;1.33;;;;;;;13.24;100.00;100352.66;5036737;28;20048;-73
2022/10/25 01:25:40;;;;;;;5.03;1.83;;;;;;;13.38;100.00;100367.81;5032474;28;20056;-74
2022/10/25 01:28:50;;;;;;;2.85;1.30;;;;;;;13.34;100.00;100373.31;5038617;28;20041;-75
2022/10/25 01:31:37;;;;;;;4.67;1.53;;;;;;;13.13;100.00;100347.06;5034312;28;20045;-74
2022/10/25 01:34:16;;;;;;;4.95;1.55;;;;;;;13.21;100.00;100371.47;5042292;28;20068;-73
2022/10/25 01:37:18;;;;;;;2.90;1.17;;;;;;;13.12;100.00;100371.94;5037250;28;20565;-74
2022/10/25 01:39:57;;;;;;;2.65;1.15;;;;;;;13.08;100.00;100371.25;5014178;28;20085;-73
2022/10/25 01:42:39;;;;;;;5.07;1.50;;;;;;;13.09;100.00;100374.78;5040148;28;20064;-75
2022/10/25 01:45:18;;;;;;;5.28;1.40;;;;;;;13.01;100.00;100359.28;5043125;28;20045;-72
2022/10/25 01:48:18;;;;;;;3.92;1.40;;;;;;;13.07;100.00;100385.50;5042850;28;20052;-73
2022/10/25 01:50:46;;;;;;;4.13;1.25;;;;;;;13.04;100.00;100374.22;5047040;28;20052;-73
2022/10/25 01:53:13;;;;;;;3.92;1.60;;;;;;;13.14;100.00;100386.00;5047643;28;20048;-72
2022/10/25 01:55:46;;;;;;;5.65;1.35;;;;;;;13.18;100.00;100382.28;5039849;28;20075;-72
2022/10/25 01:58:30;;;;;;;5.65;1.25;;;;;;;13.21;100.00;100374.97;5034961;28;20045;-74
2022/10/25 02:01:10;;;;;;;5.38;1.52;;;;;;;13.25;100.00;100372.97;5038833;28;20064;-73
2022/10/25 02:04:21;;;;;;;6.53;1.58;;;;;;;13.30;100.00;100373.56;5043619;28;20124;-74
2022/10/25 02:07:05;;;;;;;3.70;1.33;;;;;;;13.16;100.00;100349.59;5037716;28;20124;-73
2022/10/25 02:09:42;;;;;;;4.60;1.13;;;;;;;13.31;100.00;100372.63;5039070;28;20059;-74
2022/10/25 02:12:18;;;;;;;3.30;1.17;;;;;;;13.28;100.00;100371.00;5042141;28;20048;-74
2022/10/25 02:14:58;;;;;;;2.75;1.25;;;;;;;13.22;100.00;100360.72;5049607;28;20124;-74
2022/10/25 02:17:26;;;;;;;7.55;1.58;;;;;;;13.26;100.00;100369.38;5033474;28;20141;-73
2022/10/25 02:19:57;;;;;;;3.08;1.30;;;;;;;13.08;100.00;100343.81;5044478;28;20353;-74
2022/10/25 02:22:28;;;;;;;4.60;1.42;;;;;;;13.24;100.00;100373.91;5044949;28;20140;-73
2022/10/25 02:24:56;;;;;;;4.07;1.30;;;;;;;13.21;100.00;100371.47;5036949;28;20059;-72
2022/10/25 02:27:24;;;;;;;3.85;1.55;;;;;;;13.18;100.00;100367.19;5037810;28;20045;-74
2022/10/25 02:29:52;;;;;;;5.57;1.27;;;;;;;13.22;100.00;100378.50;5045687;28;20060;-73
2022/10/25 02:32:19;;;;;;;2.85;1.20;;;;;;;13.18;100.00;100366.31;5043747;28;20059;-73
2022/10/25 02:34:48;;;;;;;3.05;1.40;;;;;;;13.19;100.00;100376.00;5037132;28;20140;-74
2022/10/25 02:37:14;;;;;;;5.40;1.75;;;;;;;13.16;100.00;100376.19;5032084;28;20590;-74
2022/10/25 02:39:42;;;;;;;4.45;1.25;;;;;;;13.12;100.00;100361.31;5035916;28;20392;-75
2022/10/25 02:42:09;;;;;;;4.50;1.25;;;;;;;13.17;100.00;100369.91;5035789;28;20171;-73
2022/10/25 02:44:36;;;;;;;4.53;1.48;;;;;;;13.18;100.00;100366.31;5036536;28;20041;-73
2022/10/25 02:47:02;;;;;;;5.05;1.30;;;;;;;13.17;100.00;100359.28;5029583;28;20076;-73
2022/10/25 02:49:29;;;;;;;2.60;1.30;;;;;;;13.27;100.00;100379.94;5033506;28;20441;-73
2022/10/25 02:51:55;;;;;;;5.10;1.40;;;;;;;13.10;100.00;100364.06;5035695;28;20060;-74
2022/10/25 02:54:22;;;;;;;4.30;1.70;;;;;;;13.16;100.00;100386.81;5042171;28;20546;-73
2022/10/25 02:56:51;;;;;;;6.95;1.42;;;;;;;13.15;100.00;100385.09;5032350;28;20054;-73
2022/10/25 02:59:20;;;;;;;3.63;1.10;;;;;;;13.13;100.00;100382.50;5038518;28;20064;-74
2022/10/25 03:01:46;;;;;;;4.18;1.38;;;;;;;13.12;100.00;100382.59;5040526;28;20074;-74
2022/10/25 03:04:13;;;;;;;3.22;1.40;;;;;;;12.96;100.00;100371.97;5035991;28;20115;-75
2022/10/25 03:06:40;;;;;;;6.32;1.70;;;;;;;13.02;100.00;100382.25;5032905;28;20610;-74
2022/10/25 03:09:06;;;;;;;2.97;1.20;;;;;;;13.00;100.00;100387.66;5035932;28;20068;-72
2022/10/25 03:11:33;;;;;;;8.38;1.52;;;;;;;12.86;100.00;100365.47;5035325;28;20056;-73
2022/10/25 03:13:59;;;;;;;6.22;1.23;;;;;;;12.75;100.00;100346.63;5033602;28;20051;-72
2022/10/25 03:16:26;;;;;;;4.72;1.60;;;;;;;12.97;100.00;100384.31;5031449;28;20085;-72
2022/10/25 03:18:56;;;;;;;5.50;1.40;;;;;;;12.98;100.00;100383.38;5035744;28;20063;-72
2022/10/25 03:21:22;;;;;;;3.40;1.08;;;;;;;12.93;100.00;100388.09;5035790;28;20416;-73
2022/10/25 03:23:49;;;;;;;2.70;1.02;;;;;;;12.72;100.00;100370.72;5039560;28;20055;-74
2022/10/25 03:26:15;;;;;;;4.30;1.27;;;;;;;12.71;100.00;100385.81;5031038;28;20091;-73
2022/10/25 03:28:42;;;;;;;4.47;1.90;;;;;;;12.71;100.00;100392.91;5035802;28;20085;-73
2022/10/25 03:31:14;;;;;;;4.93;1.40;;;;;;;12.64;100.00;100389.72;5037440;28;20217;-73
2022/10/25 03:33:41;;;;;;;4.15;1.50;;;;;;;12.68;100.00;100393.94;5037409;28;20410;-73
2022/10/25 03:36:08;;;;;;;5.45;1.50;;;;;;;12.64;100.00;100392.38;5033164;28;20135;-72
2022/10/25 03:38:35;;;;;;;6.05;1.35;;;;;;;12.62;100.00;100399.56;5026766;28;20105;-72
2022/10/25 03:41:02;;;;;;;3.75;1.63;;;;;;;12.49;100.00;100378.16;5037713;28;20378;-73
2022/10/25 03:43:28;;;;;;;4.07;1.50;;;;;;;12.57;100.00;100391.03;5035063;28;20065;-72
2022/10/25 03:45:55;;;;;;;5.93;1.48;;;;;;;12.48;100.00;100375.56;5043065;28;20104;-72
2022/10/25 03:48:22;;;;;;;4.55;1.50;;;;;;;12.56;100.00;100397.28;5036704;28;20057;-72
2022/10/25 03:50:48;;;;;;;4.25;1.23;;;;;;;12.51;100.00;100401.97;5044148;28;20432;-74
2022/10/25 03:53:15;;;;;;;5.45;1.85;;;;;;;12.41;100.00;100374.22;5034453;28;20248;-73
2022/10/25 03:55:41;;;;;;;3.45;1.10;;;;;;;12.58;100.00;100393.59;5035506;28;20040;-74
2022/10/25 03:58:08;;;;;;;7.35;1.70;;;;;;;12.53;100.00;100390.31;5035580;28;20045;-74
2022/10/25 04:00:34;;;;;;;2.78;1.20;;;;;;;12.58;100.00;100400.72;5043242;28;20053;-74
2022/10/25 04:03:01;;;;;;;2.83;1.50;;;;;;;12.51;100.00;100404.63;5047636;28;20128;-74
2022/10/25 04:05:29;;;;;;;8.02;1.52;;;;;;;12.41;100.00;100416.72;5048281;28;20127;-74
2022/10/25 04:07:56;;;;;;;3.90;1.50;;;;;;;12.18;100.00;100396.69;5043836;28;20060;-74
2022/10/25 04:10:24;;;;;;;11.77;1.85;;;;;;;12.20;100.00;100416.06;5047573;28;20052;-72
2022/10/25 04:12:51;;;;;;;4.15;1.50;;;;;;;12.13;100.00;100418.16;5051794;28;20103;-73
2022/10/25 04:15:20;;;;;;;7.05;1.95;;;;;;;11.99;100.00;100403.91;5048029;28;20056;-72
2022/10/25 04:17:48;;;;;;;8.02;1.80;;;;;;;11.99;100.00;100417.16;5051195;28;20048;-73
2022/10/25 04:20:15;;;;;;;6.00;1.88;;;;;;;11.74;100.00;100378.63;5058731;28;20117;-75
2022/10/25 04:22:42;;;;;;;3.75;1.73;;;;;;;11.96;100.00;100420.88;5065325;28;20045;-73
2022/10/25 04:25:08;;;;;;;5.03;1.80;;;;;;;11.83;100.00;100411.81;5060373;28;20091;-72
2022/10/25 04:27:35;;;;;;;9.50;2.03;;;;;;;11.90;100.00;100434.44;5047813;28;20484;-72
2022/10/25 04:30:01;;;;;;;6.43;1.83;;;;;;;11.86;100.00;100427.56;5050158;28;20465;-73
2022/10/25 04:32:28;;;;;;;5.15;1.70;;;;;;;11.80;100.00;100430.56;5047237;28;20087;-73
2022/10/25 04:34:55;;;;;;;5.45;2.03;;;;;;;11.73;100.00;100429.97;5047344;28;20060;-72
2022/10/25 04:37:21;;;;;;;4.78;1.88;;;;;;;11.62;100.00;100418.19;5035334;28;20107;-73
2022/10/25 04:39:48;;;;;;;4.07;1.92;;;;;;;11.57;100.00;100413.97;5052692;28;20144;-73
2022/10/25 04:42:16;;;;;;;4.80;1.80;;;;;;;11.61;100.00;100433.25;5043998;28;20106;-73
2022/10/25 04:44:42;;;;;;;6.97;1.95;;;;;;;11.56;100.00;100411.41;5046440;28;20055;-72
2022/10/25 04:47:09;;;;;;;4.32;1.75;;;;;;;11.49;100.00;100410.84;5038527;28;20434;-72
2022/10/25 04:49:36;;;;;;;4.72;1.60;;;;;;;11.47;100.00;100412.75;5048256;28;20080;-73
2022/10/25 04:52:02;;;;;;;3.17;1.67;;;;;;;11.54;100.00;100434.50;5044648;28;20240;-73
2022/10/25 04:54:29;;;;;;;4.43;1.85;;;;;;;11.54;100.00;100429.19;5043811;28;20048;-73
2022/10/25 04:56:55;;;;;;;4.72;1.70;;;;;;;11.52;100.00;100431.91;5043930;28;20064;-73
2022/10/25 04:59:22;;;;;;;4.28;1.90;;;;;;;11.52;100.00;100416.00;5047886;28;20065;-73
2022/10/25 05:01:49;;;;;;;2.95;1.65;;;;;;;11.53;100.00;100407.09;5049317;28;20503;-73
2022/10/25 05:04:20;;;;;;;4.47;1.73;;;;;;;11.67;100.00;100418.81;5049702;28;20049;-74
2022/10/25 05:06:47;;;;;;;5.15;1.88;;;;;;;11.66;100.00;100410.00;5041398;28;20064;-77
2022/10/25 05:09:13;;;;;;;5.57;2.58;;;;;;;11.76;100.00;100419.25;5026439;28;20045;-73
2022/10/25 05:11:40;;;;;;;5.85;2.05;;;;;;;11.63;100.00;100402.22;5045570;28;20050;-72
2022/10/25 05:14:06;;;;;;;3.60;2.03;;;;;;;11.74;100.00;100425.53;5047785;28;20451;-73
2022/10/25 05:16:34;;;;;;;5.82;2.42;;;;;;;11.70;100.00;100423.97;5042298;28;20147;-73
2022/10/25 05:19:00;;;;;;;6.22;2.20;;;;;;;11.64;100.00;100426.94;5042421;28;20051;-73
2022/10/25 05:21:29;;;;;;;4.38;1.98;;;;;;;11.53;100.00;100419.50;5044368;28;20484;-72
2022/10/25 05:23:58;;;;;;;5.00;2.13;;;;;;;11.64;100.00;100446.38;5045119;28;20049;-73
2022/10/25 05:26:29;;;;;;;4.95;2.20;;;;;;;11.62;100.00;100439.41;5045449;28;20049;-73
2022/10/25 05:28:56;;;;;;;8.10;3.08;;;;;;;11.60;100.00;100421.78;5040344;28;20088;-73
2022/10/25 05:31:25;;;;;;;5.93;2.13;;;;;;;11.76;100.00;100444.91;5046777;28;20585;-72
2022/10/25 05:33:54;;;;;;;4.07;1.80;;;;;;;11.81;100.00;100442.84;5040000;28;20071;-72
2022/10/25 05:36:20;;;;;;;10.15;2.38;;;;;;;11.89;100.00;100446.84;5041913;28;20049;-74
2022/10/25 05:38:47;;;;;;;5.57;2.28;;;;;;;11.98;100.00;100440.19;5040775;28;20148;-73
2022/10/25 05:41:16;;;;;;;6.80;2.30;;;;;;;12.03;100.00;100443.47;5043781;28;20044;-72
2022/10/25 05:43:43;;;;;;;9.25;2.42;;;;;;;12.06;100.00;100448.63;5040924;28;20053;-72
2022/10/25 05:46:19;;;;;;;7.07;2.50;;;;;;;11.94;100.00;100420.09;5034633;28;20037;-74
2022/10/25 05:48:46;;;;;;;4.95;2.50;;;;;;;12.08;100.00;100441.47;5036041;28;20076;-74
2022/10/25 05:51:20;;;;;;;5.00;2.40;;;;;;;12.08;100.00;100441.47;5045699;28;20136;-72
2022/10/25 05:54:05;;;;;;;10.40;2.85;;;;;;;12.06;100.00;100443.31;5046609;28;20063;-75
2022/10/25 05:56:34;;;;;;;9.27;2.22;;;;;;;11.99;100.00;100447.22;5038503;28;20041;-74
2022/10/25 05:59:09;;;;;;;7.10;2.35;;;;;;;12.03;100.00;100451.44;5034931;28;20171;-73
2022/10/25 06:01:40;;;;;;;7.00;2.72;;;;;;;12.04;100.00;100461.13;5046928;28;20065;-74
2022/10/25 06:04:06;;;;;;;;;;;;;;;12.06;100.00;100461.91;5045070;28;20055;-73
2022/10/25 06:06:34;;;;;;;10.57;2.25;;;;;;;11.99;100.00;100471.09;5040080;28;19945;-73
2022/10/25 06:09:01;;;;;;;6.20;2.08;;;;;;;12.04;100.00;100473.53;5037270;28;20049;-74
2022/10/25 06:11:28;;;;;;;6.93;2.65;;;;;;;12.01;100.00;100463.94;5046565;28;20441;-72
2022/10/25 06:13:55;;;;;;;7.22;2.35;;;;;;;12.20;100.00;100488.59;5046823;28;20132;-72
2022/10/25 06:16:22;;;;;;;5.82;2.95;;;;;;;12.30;100.00;100488.94;5044462;28;20349;-72
2022/10/25 06:18:49;;;;;;;11.30;3.00;;;;;;;12.35;100.00;100496.69;5033728;28;20085;-74
2022/10/25 06:21:19;;;;;;;5.93;2.50;;;;;;;12.42;100.00;100493.66;5045620;28;20053;-73
2022/10/25 06:23:47;;;;;;;7.60;3.23;;;;;;;12.42;100.00;100487.47;5047379;28;22103;-73
2022/10/25 06:26:15;;;;;;;9.00;3.33;;;;;;;12.30;100.00;100479.19;5040121;28;20499;-75
2022/10/25 06:28:42;;;;;;;10.43;2.90;;;;;;;12.41;100.00;100497.25;5035971;28;20065;-75
2022/10/25 06:31:10;;;;;;;6.65;2.53;;;;;;;12.49;100.00;100502.13;5046742;28;20041;-74
2022/10/25 06:33:38;;;;;;;6.93;2.47;;;;;;;12.57;100.00;100507.91;5047884;28;20421;-72
2022/10/25 06:36:09;;;;;;;9.63;3.15;;;;;;;12.65;100.00;100505.69;5047210;28;20048;-72
2022/10/25 06:38:35;;;;;;;10.45;3.15;;;;;;;12.77;100.00;100498.84;5034299;28;20052;-73
2022/10/25 06:41:08;;;;;;;9.60;3.20;;;;;;;12.82;100.00;100502.13;5043711;28;20084;-73
2022/10/25 06:43:35;;;;;;;9.27;3.50;;;;;;;12.74;100.00;100507.84;5041140;28;20052;-72
2022/10/25 06:46:10;;;;;;;12.02;3.30;;;;;;;12.68;100.00;100516.16;5042387;28;20486;-73
2022/10/25 06:48:36;;;;;;;8.75;2.78;;;;;;;12.43;100.00;100498.03;5037027;28;20102;-73
2022/10/25 06:51:05;;;;;;;10.50;3.83;;;;;;;12.50;100.00;100530.41;5042729;28;20405;-72
2022/10/25 06:53:32;;;;;;;10.57;3.42;;;;;;;12.40;100.00;100519.41;5045055;28;20056;-71
2022/10/25 06:56:04;;;;;;;6.90;2.95;;;;;;;12.55;100.00;100531.91;5045009;28;20559;-74
2022/10/25 06:58:34;;;;;;;10.35;2.90;;;;;;;12.59;100.00;100527.28;5036785;28;20041;-73
2022/10/25 07:01:03;;;;;;;10.27;3.70;;;;;;;12.69;100.00;100527.63;5042118;28;20040;-73
2022/10/25 07:03:34;;;;;;;8.25;3.00;;;;;;;12.87;100.00;100537.28;5041808;28;20053;-74
2022/10/25 07:06:08;;;;;;;;;;;;;;;12.92;100.00;100544.03;5042175;28;20048;-73
2022/10/25 07:08:36;;;;;;;12.35;3.10;;;;;;;12.89;100.00;100516.81;5036906;28;19927;-72
2022/10/25 07:11:04;;;;;;;10.85;2.70;;;;;;;13.16;100.00;100533.06;5042485;28;20059;-73
2022/10/25 07:13:32;;;;;;;11.73;3.53;;;;;;;13.33;100.00;100509.03;5045838;28;20071;-73
2022/10/25 07:16:06;;;;;;;6.55;2.90;;;;;;;13.68;100.00;100537.16;5040047;28;20084;-72
2022/10/25 07:18:35;;;;;;;8.25;2.97;;;;;;;13.85;100.00;100536.16;5039019;28;20131;-72
2022/10/25 07:21:04;;;;;;;9.57;2.60;;;;;;;14.05;100.00;100537.66;5044036;28;20136;-72
2022/10/25 07:23:31;;;;;;;10.52;3.13;;;;;;;14.20;100.00;100544.75;5044322;28;20484;-72
2022/10/25 07:25:58;;;;;;;8.82;3.53;;;;;;;14.04;100.00;100559.91;5043170;28;20049;-72
2022/10/25 07:28:26;;;;;;;12.18;3.08;;;;;;;13.69;100.00;100538.84;5035011;28;20137;-73
2022/10/25 07:30:52;;;;;;;15.73;3.22;;;;;;;13.71;100.00;100554.72;5036019;28;20052;-72
2022/10/25 07:33:19;;;;;;;11.40;3.42;;;;;;;13.67;100.00;100562.06;5038751;28;20401;-72
2022/10/25 07:35:48;;;;;;;9.07;2.85;;;;;;;13.58;100.00;100561.69;5043135;28;20057;-72
2022/10/25 07:38:35;;;;;;;8.75;3.13;;;;;;;13.52;100.00;100562.06;5036199;28;20049;-73
2022/10/25 07:41:02;;;;;;;9.88;3.60;;;;;;;13.47;100.00;100550.81;5037036;28;20052;-72
2022/10/25 07:43:29;;;;;;;7.20;3.20;;;;;;;13.72;100.00;100572.41;5037260;28;20047;-73
2022/10/25 07:45:55;;;;;;;7.03;3.33;;;;;;;13.87;100.00;100586.66;5042662;28;20055;-72
2022/10/25 07:48:22;;;;;;;8.00;3.80;;;;;;;13.98;100.00;100589.56;5035060;28;20252;-73
2022/10/25 07:50:49;;;;;;;10.05;3.78;;;;;;;13.84;100.00;100590.38;5035896;28;20048;-72
2022/10/25 07:53:16;;;;;;;11.82;3.85;;;;;;;13.65;100.00;100584.38;5036333;28;20041;-71
2022/10/25 07:55:49;;;;;;;8.52;3.92;;;;;;;13.65;100.00;100600.34;5033128;28;20103;-72
2022/10/25 07:58:16;;;;;;;6.00;3.17;;;;;;;13.67;100.00;100604.63;5035067;28;20048;-72
2022/10/25 08:00:43;;;;;;;8.80;3.72;;;;;;;13.58;100.00;100599.81;5041965;28;20145;-72
2022/10/25 08:03:09;;;;;;;6.35;3.13;;;;;;;13.82;100.00;100594.06;5043436;28;20127;-72
2022/10/25 08:05:36;;;;;;;8.90;3.47;;;;;;;14.08;100.00;100598.72;5041253;28;20103;-72
2022/10/25 08:08:04;;;;;;;9.55;3.65;;;;;;;14.26;100.00;100589.66;5037261;28;20046;-73
2022/10/25 08:10:30;;;;;;;10.80;3.20;;;;;;;14.33;100.00;100593.66;5044618;28;20143;-72
2022/10/25 08:12:57;;;;;;;7.53;3.70;;;;;;;14.36;100.00;100588.16;5047394;28;20878;-73
2022/10/25 08:15:24;;;;;;;15.10;3.90;;;;;;;14.38;100.00;100586.28;5043010;28;20060;-73
2022/10/25 08:18:01;;;;;;;8.23;3.55;;;;;;;14.44;100.00;100589.56;5038415;28;20145;-72
2022/10/25 08:20:28;;;;;;;6.85;3.13;;;;;;;14.49;100.00;100588.31;5046049;28;20563;-72
2022/10/25 08:23:15;;;;;;;9.13;2.88;;;;;;;14.53;100.00;100592.53;5044183;28;20048;-73
2022/10/25 08:25:41;;;;;;;6.97;3.35;;;;;;;14.58;100.00;100590.44;5041374;28;20041;-72
2022/10/25 08:28:08;;;;;;;10.85;3.35;;;;;;;14.60;100.00;100596.53;5032535;28;20045;-72
2022/10/25 08:30:35;;;;;;;11.35;3.88;;;;;;;14.61;100.00;100581.41;5041802;28;20053;-73
2022/10/25 08:33:02;;;;;;;9.60;3.50;;;;;;;14.47;100.00;100594.72;5047613;28;20045;-73
2022/10/25 08:35:28;;;;;;;7.88;3.97;;;;;;;14.37;100.00;100594.34;5046398;28;20136;-72
2022/10/25 08:37:58;;;;;;;8.52;3.70;;;;;;;14.29;100.00;100597.50;5045362;28;20137;-72
2022/10/25 08:40:44;;;;;;;12.52;3.92;;;;;;;14.44;100.00;100597.56;5039692;28;20122;-72
2022/10/25 08:43:19;;;;;;;8.73;3.97;;;;;;;14.44;100.00;100578.91;5045920;28;20128;-75
2022/10/25 08:46:15;;;;;;;10.20;3.50;;;;;;;14.76;100.00;100604.47;5048553;28;20099;-73
2022/10/25 08:48:50;;;;;;;7.65;3.83;;;;;;;14.73;100.00;100588.66;5036211;28;20071;-72
2022/10/25 08:51:34;;;;;;;9.73;3.67;;;;;;;14.94;100.00;100606.00;5038589;28;20497;-72
2022/10/25 08:54:11;;;;;;;12.25;3.90;;;;;;;15.01;100.00;100612.66;5038778;28;20048;-71
2022/10/25 08:56:37;;;;;;;10.25;3.60;;;;;;;14.92;100.00;100613.25;5039738;28;20539;-72
2022/10/25 08:59:26;;;;;;;8.55;3.65;;;;;;;14.73;100.00;100589.50;5037839;28;20057;-73
2022/10/25 09:01:57;;;;;;;9.52;3.72;;;;;;;14.74;100.00;100609.88;5036639;28;20485;-72
2022/10/25 09:04:25;;;;;;;9.18;3.55;;;;;;;14.78;100.00;100604.38;5038766;28;21121;-72
2022/10/25 09:07:09;;;;;;;7.65;3.72;;;;;;;14.80;100.00;100592.66;5039855;28;20754;-73
2022/10/25 09:09:52;;;;;;;8.90;4.38;;;;;;;14.85;100.00;100613.69;5032914;28;20045;-72
2022/10/25 09:12:33;;;;;;;12.52;4.07;;;;;;;14.78;100.00;100621.22;5038946;28;20072;-72
2022/10/25 09:15:16;;;;;;;7.70;3.80;;;;;;;14.64;100.00;100618.50;5030523;28;20041;-72
2022/10/25 09:17:49;;;;;;;11.07;4.10;;;;;;;14.59;100.00;100612.63;5039508;28;20136;-72
2022/10/25 09:20:20;;;;;;;12.90;4.35;;;;;;;14.56;100.00;100618.13;5033166;28;20100;-73
2022/10/25 09:22:53;;;;;;;11.65;4.13;;;;;;;14.53;100.00;100613.84;5046119;28;20136;-74
2022/10/25 09:25:22;;;;;;;9.52;4.22;;;;;;;14.65;100.00;100625.56;5043040;28;20044;-72
2022/10/25 09:28:02;;;;;;;8.60;4.18;;;;;;;14.71;100.00;100619.88;5043780;28;20088;-74
2022/10/25 09:30:36;;;;;;;6.82;4.15;;;;;;;14.71;100.00;100626.06;5031906;28;20102;-72
2022/10/25 09:33:09;;;;;;;12.45;4.43;;;;;;;14.71;100.00;100626.06;5042803;28;20489;-73
2022/10/25 09:35:54;;;;;;;8.23;4.13;;;;;;;14.84;100.00;100634.16;5030390;28;20578;-73
2022/10/25 09:38:39;;;;;;;11.40;4.07;;;;;;;14.92;100.00;100623.91;5037222;28;20037;-73
2022/10/25 09:41:18;;;;;;;9.60;3.95;;;;;;;15.03;100.00;100629.44;5036539;28;20489;-72
2022/10/25 09:43:57;;;;;;;14.82;4.55;;;;;;;15.08;100.00;100624.69;5044027;28;20131;-72
2022/10/25 09:46:35;;;;;;;13.32;4.18;;;;;;;15.05;100.00;100608.88;5040966;28;20107;-73
2022/10/25 09:49:15;;;;;;;11.48;4.30;;;;;;;15.22;100.00;100614.97;5032765;28;20049;-72
2022/10/25 09:51:51;;;;;;;11.10;4.25;;;;;;;15.27;100.00;100619.03;5036557;28;20500;-72
2022/10/25 09:54:33;;;;;;;8.93;3.80;;;;;;;15.23;100.00;100622.00;5039646;28;20119;-72
2022/10/25 09:57:00;;;;;;;10.85;4.18;;;;;;;15.26;100.00;100613.81;5038019;28;20059;-71
2022/10/25 09:59:27;;;;;;;8.88;3.90;;;;;;;15.40;100.00;100620.00;5034920;28;20048;-72
2022/10/25 10:01:54;;;;;;;10.45;3.95;;;;;;;15.39;100.00;100601.41;5039145;28;20041;-71
2022/10/25 10:04:30;;;;;;;11.95;3.85;;;;;;;15.55;100.00;100626.22;5034784;28;20103;-72
2022/10/25 10:07:01;;;;;;;9.20;4.28;;;;;;;15.54;100.00;100631.59;5038940;28;20045;-72
2022/10/25 10:09:30;;;;;;;9.40;4.00;;;;;;;15.38;100.00;100613.91;5031821;28;20041;-72
2022/10/25 10:12:02;;;;;;;9.10;3.45;;;;;;;15.58;100.00;100634.03;5037694;28;20052;-71
2022/10/25 10:14:40;;;;;;;9.50;3.40;;;;;;;15.68;100.00;100632.47;5037969;28;20081;-73
2022/10/25 10:17:12;;;;;;;7.72;3.10;;;;;;;15.70;100.00;100629.69;5040586;28;20045;-71
2022/10/25 10:19:40;;;;;;;4.70;2.88;;;;;;;15.80;100.00;100609.44;5030313;28;20461;-72
2022/10/25 10:22:12;;;;;;;7.00;2.95;;;;;;;15.98;100.00;100636.78;5034079;28;20164;-73
2022/10/25 10:24:41;;;;;;;6.53;3.25;;;;;;;15.91;100.00;100619.41;5033101;28;20637;-72
2022/10/25 10:27:25;;;;;;;4.75;2.70;;;;;;;15.91;100.00;100630.97;5038979;28;20467;-71
2022/10/25 10:30:00;;;;;;;9.98;3.20;;;;;;;15.92;100.00;100615.78;5032326;28;20049;-73
2022/10/25 10:32:38;;;;;;;6.25;2.72;;;;;;;16.17;100.00;100629.25;5042631;28;20375;-72
2022/10/25 10:35:31;;;;;;;10.10;3.22;;;;;;;16.03;100.00;100610.63;5039989;28;20515;-73
2022/10/25 10:38:24;;;;;;;7.35;3.38;;;;;;;16.11;100.00;100626.97;5034907;28;20045;-72
2022/10/25 10:41:12;;;;;;;6.55;2.88;;;;;;;16.06;100.00;100629.09;5029261;28;20064;-73
2022/10/25 10:43:39;;;;;;;5.20;2.70;;;;;;;15.92;100.00;100610.44;5039880;28;20103;-73
2022/10/25 10:46:14;;;;;;;9.05;2.80;;;;;;;15.90;100.00;100621.22;5039900;28;20056;-72
2022/10/25 10:48:43;;;;;;;7.55;2.60;;;;;;;16.11;100.00;100635.00;5031283;28;20053;-73
2022/10/25 10:51:16;;;;;;;6.38;2.90;;;;;;;16.16;100.00;100624.88;5030315;28;20064;-74
2022/10/25 10:54:24;;;;;;;4.75;2.80;;;;;;;16.37;100.00;100623.41;5034000;28;20394;-73
2022/10/25 10:57:02;;;;;;;7.95;3.70;;;;;;;16.42;99.79;100632.00;5036277;28;20377;-71
2022/10/25 10:59:34;;;;;;;5.15;2.72;;;;;;;16.52;98.51;100626.91;5035772;28;20049;-73
2022/10/25 11:02:30;;;;;;;6.53;2.15;;;;;;;16.49;97.54;100625.28;5042057;28;20178;-71
2022/10/25 11:04:58;;;;;;;6.82;2.10;;;;;;;16.39;97.37;100628.66;5012530;28;20049;-70
2022/10/25 11:07:31;;;;;;;7.45;2.80;;;;;;;16.36;97.27;100632.44;5042984;28;20475;-71
2022/10/25 11:10:16;;;;;;;4.43;2.10;;;;;;;16.49;96.98;100624.44;5037927;28;20144;-72
2022/10/25 11:12:43;;;;;;;9.93;2.60;;;;;;;16.60;96.96;100624.56;5041901;28;20045;-71
2022/10/25 11:15:13;;;;;;;6.45;2.30;;;;;;;16.51;93.98;100627.00;5046797;28;20037;-71
2022/10/25 11:17:52;;;;;;;3.67;2.00;;;;;;;16.57;94.94;100627.44;5044300;28;20049;-71
2022/10/25 11:20:35;;;;;;;4.38;1.80;;;;;;;16.57;93.23;100629.25;5032866;28;20052;-70
2022/10/25 11:23:05;;;;;;;6.45;2.25;;;;;;;16.49;92.59;100625.28;5041735;28;20854;-70
2022/10/25 11:25:40;;;;;;;8.57;2.70;;;;;;;16.46;94.08;100605.94;5041910;28;20045;-69
2022/10/25 11:28:12;;;;;;;4.00;2.30;;;;;;;16.65;95.17;100626.94;5038084;28;20136;-70
2022/10/25 11:31:00;;;;;;;7.43;3.58;;;;;;;16.87;94.28;100613.78;5024179;28;20132;-70
2022/10/25 11:33:32;;;;;;;6.72;2.85;;;;;;;17.11;92.77;100625.47;5032821;28;20099;-72
2022/10/25 11:36:27;;;;;;;7.00;2.53;;;;;;;17.30;90.57;100621.50;5037976;28;20489;-71
2022/10/25 11:39:10;;;;;;;5.10;1.95;;;;;;;17.39;88.35;100623.50;5039959;28;20052;-71